Gaars Mill, Louisiana
Current Conditions -  °F | °C
As of 1:15 PM on Thursday 30 Oct 2014 (Local Time) from KRSN Reporting Station
Clear Clear  
Wind Chill: 71°   Ceiling: Unl
Heat Index: 71°   Visibility: 10mi
Dew Point: 45°   Wind: 0mph
Humidity: 39%   Direction: NA
Pressure: 30.17"   Gusts: NA
Location:  32.0727°N, 92.6697°W
Report Text: KRSN 301815Z AUTO 00000KT 10SM CLR 22/07 A3017 RMK AO2 T02180072
Loading
Personal Weather Stations






























Interactive Weather Map
Tropical Storm Tracking
New forecast layout! Learn more

10-Day Weather Forecast

Advertisements
Track Severe Weather on mobile